Time,TemperatureF,DewpointF,PressureIn,WindDirection,WindDirectionDegrees,WindSpeedMPH,WindSpeedGustMPH,Humidity,HourlyPrecipIn,Conditions,Clouds,dailyrainin,SoftwareType,DateUTC
2013-01-21 00:00:00,24.7,12.4,30.20,West,271,0.0,1.0,59,0.00,,OVC100,0.00,VWS V14.01,2013-01-21 05:00:00,
2013-01-21 00:01:00,24.7,12.4,30.20,West,271,0.0,1.0,59,0.00,,OVC050,0.00,VWS V14.01,2013-01-21 05:01:00,
2013-01-21 00:03:00,24.5,11.9,30.20,West,271,0.0,0.0,58,0.00,,OVC050,0.00,VWS V14.01,2013-01-21 05:03:00,
2013-01-21 00:08:00,24.7,12.4,30.19,West,271,0.0,0.0,59,0.00,,OVC050,0.00,VWS V14.01,2013-01-21 05:08:00,
2013-01-21 00:13:00,24.7,12.4,30.19,West,271,0.0,0.0,59,0.00,,OVC050,0.00,VWS V14.01,2013-01-21 05:13:00,
2013-01-21 00:15:00,24.5,11.9,30.18,WNW,294,0.0,5.0,58,0.00,,OVC100,0.00,VWS V14.01,2013-01-21 05:15:00,
2013-01-21 00:18:00,24.7,12.4,30.19,West,271,0.0,3.0,59,0.00,,OVC050,0.00,VWS V14.01,2013-01-21 05:18:00,
2013-01-21 00:23:00,24.7,12.0,30.19,WNW,284,0.0,3.0,58,0.00,,OVC050,0.00,VWS V14.01,2013-01-21 05:23:00,
2013-01-21 00:28:00,24.7,12.0,30.18,West,271,0.0,3.0,58,0.00,,OVC050,0.00,VWS V14.01,2013-01-21 05:28:00,
2013-01-21 00:30:00,24.4,12.1,30.17,WNW,282,1.0,5.0,59,0.00,,OVC100,0.00,VWS V14.01,2013-01-21 05:30:00,
2013-01-21 00:33:00,24.7,12.0,30.18,WNW,288,0.0,2.0,58,0.00,,OVC050,0.00,VWS V14.01,2013-01-21 05:33:00,
2013-01-21 00:39:00,24.7,12.0,30.18,West,263,2.0,5.0,58,0.00,,OVC050,0.00,VWS V14.01,2013-01-21 05:39:00,
2013-01-21 00:44:00,24.5,11.9,30.18,WNW,282,1.0,5.0,58,0.00,,OVC050,0.00,VWS V14.01,2013-01-21 05:44:00,
2013-01-21 00:45:00,24.4,12.5,30.17,West,268,0.0,3.0,60,0.00,,OVC100,0.00,VWS V14.01,2013-01-21 05:45:00,
2013-01-21 00:49:00,24.5,12.2,30.18,WNW,282,0.0,3.0,59,0.00,,OVC050,0.00,VWS V14.01,2013-01-21 05:49:00,
2013-01-21 00:54:00,24.5,11.9,30.18,NNW,347,0.0,3.0,58,0.00,,OVC050,0.00,VWS V14.01,2013-01-21 05:54:00,
2013-01-21 00:59:00,24.7,12.0,30.17,NNW,347,0.0,1.0,58,0.00,,OVC050,0.00,VWS V14.01,2013-01-21 05:59:00,
2013-01-21 01:00:00,24.4,12.5,30.17,WNW,291,0.0,1.0,60,0.00,,OVC100,0.00,VWS V14.01,2013-01-21 06:00:00,
2013-01-21 01:04:00,24.7,12.0,30.17,NNW,332,0.0,2.0,58,0.00,,OVC085,0.00,VWS V14.01,2013-01-21 06:04:00,
2013-01-21 01:09:00,24.7,12.0,30.17,WSW,243,1.0,3.0,58,0.00,,OVC085,0.00,VWS V14.01,2013-01-21 06:09:00,
2013-01-21 01:14:00,24.5,11.9,30.18,West,271,2.0,5.0,58,0.00,,OVC085,0.00,VWS V14.01,2013-01-21 06:14:00,
2013-01-21 01:15:00,24.4,12.1,30.16,WNW,288,3.0,6.0,59,0.00,,OVC100,0.00,VWS V14.01,2013-01-21 06:15:00,
2013-01-21 01:19:00,24.4,12.1,30.18,West,272,3.0,5.0,59,0.00,,OVC085,0.00,VWS V14.01,2013-01-21 06:19:00,
2013-01-21 01:24:00,24.2,11.9,30.17,West,277,0.0,5.0,59,0.00,,OVC085,0.00,VWS V14.01,2013-01-21 06:24:00,
2013-01-21 01:29:00,24.2,11.9,30.17,WNW,282,2.0,5.0,59,0.00,,OVC085,0.00,VWS V14.01,2013-01-21 06:29:00,
2013-01-21 01:30:00,24.4,12.5,30.16,West,277,0.0,3.0,60,0.00,,OVC100,0.00,VWS V14.01,2013-01-21 06:30:00,
2013-01-21 01:34:00,24.4,12.1,30.17,WNW,282,0.0,5.0,59,0.00,,OVC085,0.00,VWS V14.01,2013-01-21 06:34:00,
2013-01-21 01:39:00,24.4,12.5,30.17,West,268,0.0,3.0,60,0.00,,OVC085,0.00,VWS V14.01,2013-01-21 06:39:00,
2013-01-21 01:44:00,24.4,12.5,30.17,West,268,0.0,3.0,60,0.00,,OVC085,0.00,VWS V14.01,2013-01-21 06:44:00,
2013-01-21 01:45:00,24.2,12.3,30.16,West,275,0.0,2.0,60,0.00,,OVC100,0.00,VWS V14.01,2013-01-21 06:45:00,
2013-01-21 01:49:00,24.4,12.5,30.17,NW,319,2.0,2.0,60,0.00,,OVC085,0.00,VWS V14.01,2013-01-21 06:49:00,
2013-01-21 01:54:00,24.4,12.1,30.16,WNW,291,0.0,2.0,59,0.00,,OVC085,0.00,VWS V14.01,2013-01-21 06:54:00,
2013-01-21 01:59:00,24.4,12.5,30.17,WNW,291,0.0,1.0,60,0.00,,OVC085,0.00,VWS V14.01,2013-01-21 06:59:00,
2013-01-21 02:00:00,24.2,12.3,30.16,WNW,287,0.0,3.0,60,0.00,,OVC100,0.00,VWS V14.01,2013-01-21 07:00:00,
2013-01-21 02:05:00,24.2,12.3,30.17,WNW,296,0.0,5.0,60,0.00,,OVC050,0.00,VWS V14.01,2013-01-21 07:05:00,
2013-01-21 02:10:00,24.4,12.1,30.17,West,264,0.0,6.0,59,0.00,,OVC050,0.00,VWS V14.01,2013-01-21 07:10:00,
2013-01-21 02:15:00,24.4,12.1,30.16,WNW,287,3.0,6.0,59,0.00,,OVC050,0.00,VWS V14.01,2013-01-21 07:15:00,
2013-01-21 02:20:00,24.4,12.1,30.16,WNW,295,3.0,3.0,59,0.00,,OVC050,0.00,VWS V14.01,2013-01-21 07:20:00,
2013-01-21 02:25:00,24.4,12.5,30.16,WNW,282,0.0,3.0,60,0.00,,OVC050,0.00,VWS V14.01,2013-01-21 07:25:00,
2013-01-21 02:30:00,24.4,12.5,30.16,West,277,0.0,3.0,60,0.00,,OVC050,0.00,VWS V14.01,2013-01-21 07:30:00,
2013-01-21 02:35:00,24.4,12.5,30.16,West,277,0.0,2.0,60,0.00,,OVC050,0.00,VWS V14.01,2013-01-21 07:35:00,
2013-01-21 02:40:00,24.2,11.9,30.16,West,277,0.0,0.0,59,0.00,,OVC050,0.00,VWS V14.01,2013-01-21 07:40:00,
2013-01-21 02:45:00,24.2,12.3,30.16,West,275,0.0,2.0,60,0.00,,OVC050,0.00,VWS V14.01,2013-01-21 07:45:00,
2013-01-21 02:50:00,24.2,12.3,30.16,West,274,0.0,0.0,60,0.00,,OVC050,0.00,VWS V14.01,2013-01-21 07:50:00,
2013-01-21 02:55:00,24.2,12.3,30.16,West,274,0.0,0.0,60,0.00,,OVC050,0.00,VWS V14.01,2013-01-21 07:55:00,
2013-01-21 03:00:00,24.2,12.3,30.16,WNW,287,0.0,3.0,60,0.00,,OVC050,0.00,VWS V14.01,2013-01-21 08:00:00,
2013-01-21 03:05:00,24.2,12.3,30.15,West,278,0.0,3.0,60,0.00,,OVC080,0.00,VWS V14.01,2013-01-21 08:05:00,
2013-01-21 03:10:00,24.2,12.3,30.15,West,278,0.0,2.0,60,0.00,,OVC080,0.00,VWS V14.01,2013-01-21 08:10:00,
2013-01-21 03:15:00,24.4,12.5,30.15,WNW,287,0.0,2.0,60,0.00,,OVC080,0.00,VWS V14.01,2013-01-21 08:15:00,
2013-01-21 03:20:00,24.4,12.1,30.15,WSW,241,1.0,5.0,59,0.00,,OVC080,0.00,VWS V14.01,2013-01-21 08:20:00,
2013-01-21 03:25:00,24.2,12.3,30.15,WNW,289,2.0,5.0,60,0.00,,OVC080,0.00,VWS V14.01,2013-01-21 08:25:00,
2013-01-21 03:30:00,24.2,12.3,30.15,WNW,285,0.0,3.0,60,0.00,,OVC080,0.00,VWS V14.01,2013-01-21 08:30:00,
2013-01-21 03:35:00,24.4,12.9,30.15,West,277,0.0,3.0,61,0.00,,OVC080,0.00,VWS V14.01,2013-01-21 08:35:00,
2013-01-21 03:40:00,24.2,12.7,30.14,WSW,248,0.0,2.0,61,0.00,,OVC080,0.00,VWS V14.01,2013-01-21 08:40:00,
2013-01-21 03:45:00,24.1,12.6,30.14,West,272,0.0,5.0,61,0.00,,OVC080,0.00,VWS V14.01,2013-01-21 08:45:00,
2013-01-21 03:50:00,23.9,12.4,30.14,West,263,0.0,5.0,61,0.00,,OVC080,0.00,VWS V14.01,2013-01-21 08:50:00,
2013-01-21 03:55:00,23.9,12.4,30.14,WSW,254,0.0,0.0,61,0.00,,OVC080,0.00,VWS V14.01,2013-01-21 08:55:00,
2013-01-21 04:00:00,23.9,12.4,30.13,WSW,254,0.0,2.0,61,0.00,,OVC075,0.00,VWS V14.01,2013-01-21 09:00:00,
2013-01-21 04:05:00,23.9,12.4,30.14,WSW,251,0.0,3.0,61,0.00,,OVC075,0.00,VWS V14.01,2013-01-21 09:05:00,
2013-01-21 04:10:00,23.8,12.7,30.14,WSW,250,0.0,1.0,62,0.00,,OVC075,0.00,VWS V14.01,2013-01-21 09:10:00,
2013-01-21 04:15:00,23.9,12.8,30.13,WSW,251,0.0,2.0,62,0.00,,OVC075,0.00,VWS V14.01,2013-01-21 09:15:00,
2013-01-21 04:20:00,23.9,12.8,30.13,West,261,0.0,2.0,62,0.00,,OVC075,0.00,VWS V14.01,2013-01-21 09:20:00,
2013-01-21 04:25:00,23.9,12.8,30.13,WSW,250,2.0,3.0,62,0.00,,OVC075,0.00,VWS V14.01,2013-01-21 09:25:00,
2013-01-21 04:30:00,23.8,12.3,30.13,WSW,254,1.0,6.0,61,0.00,,OVC075,0.00,VWS V14.01,2013-01-21 09:30:00,
2013-01-21 04:35:00,23.8,12.7,30.13,WSW,254,0.0,6.0,62,0.00,,OVC075,0.00,VWS V14.01,2013-01-21 09:35:00,
2013-01-21 04:40:00,23.8,12.3,30.13,WSW,251,0.0,2.0,61,0.00,,OVC075,0.00,VWS V14.01,2013-01-21 09:40:00,
2013-01-21 04:45:00,23.8,12.7,30.12,SW,233,1.0,5.0,62,0.00,,OVC075,0.00,VWS V14.01,2013-01-21 09:45:00,
2013-01-21 04:51:00,23.8,12.7,30.12,WSW,248,3.0,5.0,62,0.00,,OVC075,0.00,VWS V14.01,2013-01-21 09:51:00,
2013-01-21 04:56:00,23.8,12.7,30.12,West,261,0.0,3.0,62,0.00,,OVC075,0.00,VWS V14.01,2013-01-21 09:56:00,
2013-01-21 05:00:00,23.3,12.9,30.13,WSW,256,0.0,7.0,64,0.00,,OVC100,0.00,VWS V14.01,2013-01-21 10:00:00,
2013-01-21 05:01:00,23.8,13.1,30.12,West,261,0.0,3.0,63,0.00,,OVC070,0.00,VWS V14.01,2013-01-21 10:01:00,
2013-01-21 05:06:00,23.8,12.7,30.12,WSW,248,2.0,7.0,62,0.00,,OVC070,0.00,VWS V14.01,2013-01-21 10:06:00,
2013-01-21 05:11:00,23.6,12.5,30.12,SW,226,1.0,7.0,62,0.00,,OVC070,0.00,VWS V14.01,2013-01-21 10:11:00,
2013-01-21 05:15:00,23.3,12.9,30.12,West,260,0.0,5.0,64,0.00,,OVC100,0.00,VWS V14.01,2013-01-21 10:15:00,
2013-01-21 05:16:00,23.5,12.8,30.12,WSW,241,0.0,5.0,63,0.00,,OVC070,0.00,VWS V14.01,2013-01-21 10:16:00,
2013-01-21 05:21:00,23.5,12.8,30.12,WSW,241,0.0,3.0,63,0.00,,OVC070,0.00,VWS V14.01,2013-01-21 10:21:00,
2013-01-21 05:26:00,23.6,12.9,30.12,WSW,237,0.0,2.0,63,0.00,,OVC070,0.00,VWS V14.01,2013-01-21 10:26:00,
2013-01-21 05:30:00,23.3,12.9,30.12,SW,230,1.0,7.0,64,0.00,,OVC100,0.00,VWS V14.01,2013-01-21 10:30:00,
2013-01-21 05:31:00,23.8,13.1,30.12,WSW,237,3.0,3.0,63,0.00,,OVC070,0.00,VWS V14.01,2013-01-21 10:31:00,
2013-01-21 05:36:00,23.6,12.9,30.12,WSW,237,0.0,4.0,63,0.00,,OVC070,0.00,VWS V14.01,2013-01-21 10:36:00,
2013-01-21 05:41:00,23.5,12.8,30.13,WSW,243,1.0,7.0,63,0.00,,OVC070,0.00,VWS V14.01,2013-01-21 10:41:00,
2013-01-21 05:45:00,23.2,12.8,30.12,SW,234,0.0,10.0,64,0.00,,OVC100,0.00,VWS V14.01,2013-01-21 10:45:00,
2013-01-21 05:47:00,23.5,13.1,30.12,West,260,0.0,7.0,64,0.00,,OVC070,0.00,VWS V14.01,2013-01-21 10:47:00,
2013-01-21 05:52:00,23.3,12.6,30.12,SW,230,0.0,7.0,63,0.00,,OVC070,0.00,VWS V14.01,2013-01-21 10:52:00,
2013-01-21 05:57:00,23.3,12.9,30.12,WSW,254,0.0,7.0,64,0.00,,OVC070,0.00,VWS V14.01,2013-01-21 10:57:00,
2013-01-21 06:00:00,23.0,12.3,30.12,SW,234,0.0,7.0,63,0.00,,OVC100,0.00,VWS V14.01,2013-01-21 11:00:00,
2013-01-21 06:02:00,23.3,12.9,30.13,WSW,251,0.0,5.0,64,0.00,,OVC060,0.00,VWS V14.01,2013-01-21 11:02:00,
2013-01-21 06:07:00,23.5,13.1,30.12,WSW,258,0.0,0.0,64,0.00,,OVC060,0.00,VWS V14.01,2013-01-21 11:07:00,
2013-01-21 06:12:00,23.5,13.1,30.12,West,270,0.0,5.0,64,0.00,,OVC060,0.00,VWS V14.01,2013-01-21 11:12:00,
2013-01-21 06:15:00,23.0,12.6,30.11,SSW,212,4.0,10.0,64,0.00,,OVC100,0.00,VWS V14.01,2013-01-21 11:15:00,
2013-01-21 06:17:00,23.3,12.9,30.12,WSW,250,0.0,5.0,64,0.00,,OVC060,0.00,VWS V14.01,2013-01-21 11:17:00,
2013-01-21 06:22:00,23.3,12.9,30.12,SW,222,1.0,5.0,64,0.00,,OVC060,0.00,VWS V14.01,2013-01-21 11:22:00,
2013-01-21 06:27:00,23.3,12.9,30.12,WNW,288,7.0,7.0,64,0.00,,OVC060,0.00,VWS V14.01,2013-01-21 11:27:00,
2013-01-21 06:30:00,23.0,12.6,30.11,SW,224,0.0,7.0,64,0.00,,OVC100,0.00,VWS V14.01,2013-01-21 11:30:00,
2013-01-21 06:32:00,23.3,12.9,30.12,SW,224,0.0,7.0,64,0.00,,OVC060,0.00,VWS V14.01,2013-01-21 11:32:00,
2013-01-21 06:37:00,23.2,12.8,30.12,SW,220,0.0,6.0,64,0.00,,OVC060,0.00,VWS V14.01,2013-01-21 11:37:00,
2013-01-21 06:42:00,23.2,12.8,30.12,SW,234,3.0,10.0,64,0.00,,OVC060,0.00,VWS V14.01,2013-01-21 11:42:00,
2013-01-21 06:45:00,22.9,12.6,30.10,South,179,6.0,6.0,64,0.00,,OVC100,0.00,VWS V14.01,2013-01-21 11:45:00,
2013-01-21 06:47:00,23.2,12.8,30.12,WSW,254,0.0,5.0,64,0.00,,OVC060,0.00,VWS V14.01,2013-01-21 11:47:00,
2013-01-21 06:52:00,23.2,12.8,30.11,WSW,253,1.0,8.0,64,0.00,,OVC060,0.00,VWS V14.01,2013-01-21 11:52:00,
2013-01-21 06:57:00,23.0,12.6,30.12,SW,227,2.0,8.0,64,0.00,,OVC060,0.00,VWS V14.01,2013-01-21 11:57:00,
2013-01-21 07:00:00,22.9,12.9,30.10,SSW,213,0.0,7.0,65,0.00,,OVC100,0.00,VWS V14.01,2013-01-21 12:00:00,
2013-01-21 07:02:00,23.0,12.6,30.12,WSW,247,2.0,7.0,64,0.00,,OVC070,0.00,VWS V14.01,2013-01-21 12:02:00,
2013-01-21 07:07:00,23.0,12.3,30.12,SW,226,0.0,8.0,63,0.00,,OVC070,0.00,VWS V14.01,2013-01-21 12:07:00,
2013-01-21 07:12:00,23.0,12.6,30.12,SW,229,0.0,10.0,64,0.00,,OVC070,0.00,VWS V14.01,2013-01-21 12:12:00,
2013-01-21 07:15:00,23.0,13.4,30.10,WSW,251,0.0,6.0,66,0.00,,OVC100,0.00,VWS V14.01,2013-01-21 12:15:00,
2013-01-21 07:17:00,23.0,12.6,30.11,SW,224,0.0,8.0,64,0.00,,OVC070,0.00,VWS V14.01,2013-01-21 12:17:00,
2013-01-21 07:22:00,23.0,12.6,30.11,SW,236,0.0,5.0,64,0.00,,OVC070,0.00,VWS V14.01,2013-01-21 12:22:00,
2013-01-21 07:27:00,23.0,12.6,30.11,SW,230,0.0,7.0,64,0.00,,OVC070,0.00,VWS V14.01,2013-01-21 12:27:00,
2013-01-21 07:30:00,23.2,13.5,30.10,SW,227,0.0,5.0,66,0.00,,OVC100,0.00,VWS V14.01,2013-01-21 12:30:00,
2013-01-21 07:33:00,22.9,12.6,30.11,WSW,256,3.0,7.0,64,0.00,,OVC070,0.00,VWS V14.01,2013-01-21 12:33:00,
2013-01-21 07:38:00,22.9,12.6,30.10,SW,229,2.0,10.0,64,0.00,,OVC070,0.00,VWS V14.01,2013-01-21 12:38:00,
2013-01-21 07:43:00,22.9,12.6,30.11,SW,233,6.0,10.0,64,0.00,,OVC070,0.00,VWS V14.01,2013-01-21 12:43:00,
2013-01-21 07:45:00,23.3,13.6,30.10,WNW,284,1.0,10.0,66,0.00,,OVC100,0.00,VWS V14.01,2013-01-21 12:45:00,
2013-01-21 07:48:00,22.9,12.6,30.10,WSW,243,0.0,6.0,64,0.00,,OVC070,0.00,VWS V14.01,2013-01-21 12:48:00,
2013-01-21 07:53:00,22.9,12.9,30.10,WSW,243,0.0,5.0,65,0.00,,OVC070,0.00,VWS V14.01,2013-01-21 12:53:00,
2013-01-21 07:58:00,22.9,12.9,30.10,SW,215,6.0,6.0,65,0.00,,OVC070,0.00,VWS V14.01,2013-01-21 12:58:00,
2013-01-21 08:00:00,23.5,13.5,30.10,SW,216,0.0,11.0,65,0.00,,OVC100,0.00,VWS V14.01,2013-01-21 13:00:00,
2013-01-21 08:03:00,22.9,12.9,30.10,WSW,239,0.0,7.0,65,0.00,,OVC060,0.00,VWS V14.01,2013-01-21 13:03:00,
2013-01-21 08:08:00,22.9,12.9,30.10,WSW,239,6.0,8.0,65,0.00,,OVC060,0.00,VWS V14.01,2013-01-21 13:08:00,
2013-01-21 08:13:00,23.0,13.4,30.10,West,267,0.0,6.0,66,0.00,,OVC060,0.00,VWS V14.01,2013-01-21 13:13:00,
2013-01-21 08:15:00,23.9,13.9,30.10,West,261,0.0,10.0,65,0.00,,OVC100,0.00,VWS V14.01,2013-01-21 13:15:00,
2013-01-21 08:18:00,23.0,13.4,30.10,SW,222,3.0,5.0,66,0.00,,OVC060,0.00,VWS V14.01,2013-01-21 13:18:00,
2013-01-21 08:23:00,23.0,13.4,30.10,SW,232,0.0,5.0,66,0.00,,OVC060,0.00,VWS V14.01,2013-01-21 13:23:00,
2013-01-21 08:28:00,23.2,13.5,30.10,SW,227,0.0,5.0,66,0.00,,OVC060,0.00,VWS V14.01,2013-01-21 13:28:00,
2013-01-21 08:30:00,23.9,13.5,30.10,WSW,246,2.0,12.0,64,0.00,,OVC100,0.00,VWS V14.01,2013-01-21 13:30:00,
2013-01-21 08:33:00,23.3,13.6,30.10,West,271,2.0,5.0,66,0.00,,OVC060,0.00,VWS V14.01,2013-01-21 13:33:00,
2013-01-21 08:38:00,23.3,13.6,30.10,SW,236,0.0,6.0,66,0.00,,OVC060,0.00,VWS V14.01,2013-01-21 13:38:00,
2013-01-21 08:43:00,23.3,13.6,30.10,SW,230,0.0,10.0,66,0.00,,OVC060,0.00,VWS V14.01,2013-01-21 13:43:00,
2013-01-21 08:45:00,24.2,14.5,30.10,WSW,257,7.0,12.0,66,0.00,,OVC100,0.00,VWS V14.01,2013-01-21 13:45:00,
2013-01-21 08:48:00,23.5,13.8,30.10,WSW,237,3.0,8.0,66,0.00,,OVC060,0.00,VWS V14.01,2013-01-21 13:48:00,
2013-01-21 08:53:00,23.5,13.8,30.10,SW,230,2.0,10.0,66,0.00,,OVC060,0.00,VWS V14.01,2013-01-21 13:53:00,
2013-01-21 08:58:00,23.5,13.8,30.10,West,260,8.0,11.0,66,0.00,,OVC060,0.00,VWS V14.01,2013-01-21 13:58:00,
2013-01-21 09:00:00,24.4,14.0,30.10,West,274,8.0,14.0,64,0.00,,OVC100,0.00,VWS V14.01,2013-01-21 14:00:00,
2013-01-21 09:03:00,23.6,13.9,30.10,SSW,208,3.0,11.0,66,0.00,,OVC032,0.00,VWS V14.01,2013-01-21 14:03:00,
2013-01-21 09:08:00,23.6,13.2,30.10,WNW,292,3.0,13.0,64,0.00,,OVC032,0.00,VWS V14.01,2013-01-21 14:08:00,
2013-01-21 09:13:00,23.8,13.4,30.10,SSW,213,0.0,10.0,64,0.00,,OVC032,0.00,VWS V14.01,2013-01-21 14:13:00,
2013-01-21 09:15:00,24.1,15.1,30.10,WNW,291,6.0,11.0,68,0.00,,OVC100,0.00,VWS V14.01,2013-01-21 14:15:00,
2013-01-21 09:18:00,24.1,14.1,30.10,SW,233,2.0,16.0,65,0.00,,OVC032,0.00,VWS V14.01,2013-01-21 14:18:00,
2013-01-21 09:23:00,23.9,13.5,30.10,WNW,301,7.0,16.0,64,0.00,,OVC032,0.00,VWS V14.01,2013-01-21 14:23:00,
2013-01-21 09:28:00,23.9,13.5,30.10,West,265,3.0,12.0,64,0.00,,OVC032,0.00,VWS V14.01,2013-01-21 14:28:00,
2013-01-21 09:30:00,23.9,15.9,30.10,SW,229,3.0,14.0,71,0.00,,OVC100,0.00,VWS V14.01,2013-01-21 14:30:00,
2013-01-21 09:33:00,24.1,14.1,30.10,WSW,256,3.0,10.0,65,0.00,,OVC032,0.00,VWS V14.01,2013-01-21 14:33:00,
2013-01-21 09:38:00,24.1,14.4,30.10,WNW,292,2.0,9.0,66,0.00,,OVC032,0.00,VWS V14.01,2013-01-21 14:38:00,
2013-01-21 09:43:00,24.2,14.5,30.10,West,274,7.0,11.0,66,0.00,,OVC032,0.00,VWS V14.01,2013-01-21 14:43:00,
2013-01-21 09:45:00,23.9,15.6,30.10,South,191,3.0,14.0,70,0.00,,OVC100,0.00,VWS V14.01,2013-01-21 14:45:00,
2013-01-21 09:48:00,24.2,14.5,30.10,West,271,0.0,12.0,66,0.00,,,0.00,VWS V14.01,2013-01-21 14:48:00,
2013-01-21 09:53:00,24.2,14.1,30.10,SW,233,3.0,11.0,65,0.00,,,0.00,VWS V14.01,2013-01-21 14:53:00,
2013-01-21 09:58:00,24.4,14.0,30.10,SW,232,1.0,14.0,64,0.00,,,0.00,VWS V14.01,2013-01-21 14:58:00,
2013-01-21 10:00:00,23.9,15.9,30.10,WNW,284,4.0,14.0,71,0.00,,OVC100,0.00,VWS V14.01,2013-01-21 15:00:00,
2013-01-21 10:03:00,24.4,14.0,30.10,WSW,257,5.0,14.0,64,0.00,,,0.00,VWS V14.01,2013-01-21 15:03:00,
2013-01-21 10:08:00,24.1,14.4,30.10,WSW,258,1.0,14.0,66,0.00,,,0.00,VWS V14.01,2013-01-21 15:08:00,
2013-01-21 10:13:00,24.1,15.1,30.10,SW,232,0.0,11.0,68,0.00,,,0.00,VWS V14.01,2013-01-21 15:13:00,
2013-01-21 10:15:00,23.2,15.8,30.10,WSW,237,8.0,11.0,73,0.00,,OVC100,0.00,VWS V14.01,2013-01-21 15:15:00,
2013-01-21 10:19:00,23.9,15.2,30.10,WNW,288,6.0,16.0,69,0.00,,,0.00,VWS V14.01,2013-01-21 15:19:00,
2013-01-21 10:24:00,23.9,15.6,30.10,West,281,2.0,16.0,70,0.00,,,0.00,VWS V14.01,2013-01-21 15:24:00,
2013-01-21 10:29:00,23.9,15.9,30.10,West,277,5.0,14.0,71,0.00,,,0.00,VWS V14.01,2013-01-21 15:29:00,
2013-01-21 10:30:00,23.9,15.2,30.10,WSW,237,6.0,14.0,69,0.00,,OVC100,0.00,VWS V14.01,2013-01-21 15:30:00,
2013-01-21 10:34:00,23.8,15.8,30.10,West,278,2.0,13.0,71,0.00,,,0.00,VWS V14.01,2013-01-21 15:34:00,
2013-01-21 10:39:00,23.8,15.8,30.10,WSW,251,0.0,12.0,71,0.00,,,0.00,VWS V14.01,2013-01-21 15:39:00,
2013-01-21 10:44:00,23.9,15.6,30.10,West,265,2.0,14.0,70,0.00,,,0.00,VWS V14.01,2013-01-21 15:44:00,
2013-01-21 10:45:00,23.9,15.6,30.09,WSW,254,8.0,12.0,70,0.00,,OVC100,0.00,VWS V14.01,2013-01-21 15:45:00,
2013-01-21 10:49:00,23.8,15.5,30.10,SW,233,5.0,14.0,70,0.00,,,0.00,VWS V14.01,2013-01-21 15:49:00,
2013-01-21 10:54:00,23.8,15.5,30.10,SSW,203,2.0,14.0,70,0.00,,,0.00,VWS V14.01,2013-01-21 15:54:00,
2013-01-21 10:59:00,23.9,15.9,30.10,WNW,287,5.0,14.0,71,0.00,,,0.00,VWS V14.01,2013-01-21 15:59:00,
2013-01-21 11:00:00,25.0,14.2,30.07,West,274,6.0,16.0,63,0.00,,OVC100,0.00,VWS V14.01,2013-01-21 16:00:00,
2013-01-21 11:04:00,23.6,15.9,30.10,West,270,13.0,14.0,72,0.00,,,0.00,VWS V14.01,2013-01-21 16:04:00,
2013-01-21 11:09:00,23.2,15.8,30.10,West,270,4.0,16.0,73,0.00,,,0.00,VWS V14.01,2013-01-21 16:09:00,
2013-01-21 11:14:00,23.2,15.8,30.10,SSW,193,6.0,11.0,73,0.00,,,0.00,VWS V14.01,2013-01-21 16:14:00,
2013-01-21 11:15:00,25.3,12.2,30.07,West,270,2.0,22.0,57,0.00,,OVC100,0.00,VWS V14.01,2013-01-21 16:15:00,
2013-01-21 11:19:00,23.5,15.8,30.10,WSW,243,10.0,11.0,72,0.00,,,0.00,VWS V14.01,2013-01-21 16:19:00,
2013-01-21 11:24:00,23.6,14.6,30.10,West,271,11.0,14.0,68,0.00,,,0.00,VWS V14.01,2013-01-21 16:24:00,
2013-01-21 11:29:00,23.9,15.2,30.10,West,281,0.0,14.0,69,0.00,,,0.00,VWS V14.01,2013-01-21 16:29:00,
2013-01-21 11:30:00,24.7,12.4,30.07,WNW,296,9.0,22.0,59,0.00,,OVC100,0.00,VWS V14.01,2013-01-21 16:30:00,
2013-01-21 11:34:00,23.8,15.5,30.10,WNW,282,2.0,14.0,70,0.00,,,0.00,VWS V14.01,2013-01-21 16:34:00,
2013-01-21 11:39:00,23.8,15.8,30.09,WNW,289,0.0,12.0,71,0.00,,,0.00,VWS V14.01,2013-01-21 16:39:00,
2013-01-21 11:44:00,23.9,15.6,30.09,WSW,254,3.0,12.0,70,0.00,,,0.00,VWS V14.01,2013-01-21 16:44:00,
2013-01-21 11:45:00,24.2,13.1,30.07,West,272,0.0,12.0,62,0.00,,OVC100,0.00,VWS V14.01,2013-01-21 16:45:00,
2013-01-21 11:49:00,23.9,14.2,30.09,WSW,254,2.0,22.0,66,0.00,,,0.00,VWS V14.01,2013-01-21 16:49:00,
2013-01-21 11:54:00,24.5,14.1,30.08,SW,216,5.0,22.0,64,0.00,,,0.00,VWS V14.01,2013-01-21 16:54:00,
2013-01-21 11:59:00,25.0,14.2,30.07,WNW,291,11.0,16.0,63,0.00,,,0.00,VWS V14.01,2013-01-21 16:59:00,
2013-01-21 12:00:00,24.5,13.7,30.06,SW,236,0.0,14.0,63,0.00,,OVC100,0.00,VWS V14.01,2013-01-21 17:00:00,
2013-01-21 12:05:00,25.6,13.7,30.07,WSW,244,2.0,18.0,60,0.00,,OVC036,0.00,VWS V14.01,2013-01-21 17:05:00,
2013-01-21 12:10:00,25.6,13.3,30.07,SW,233,19.0,22.0,59,0.00,,OVC036,0.00,VWS V14.01,2013-01-21 17:10:00,
2013-01-21 12:15:00,25.3,12.2,30.07,West,267,1.0,20.0,57,0.00,,OVC036,0.00,VWS V14.01,2013-01-21 17:15:00,
2013-01-21 12:20:00,25.0,11.9,30.07,WSW,256,19.0,19.0,57,0.00,,OVC036,0.00,VWS V14.01,2013-01-21 17:20:00,
2013-01-21 12:25:00,25.0,12.3,30.07,WNW,302,7.0,19.0,58,0.00,,OVC036,0.00,VWS V14.01,2013-01-21 17:25:00,
2013-01-21 12:30:00,24.7,12.4,30.07,West,277,6.0,22.0,59,0.00,,OVC036,0.00,VWS V14.01,2013-01-21 17:30:00,
2013-01-21 12:35:00,24.4,12.5,30.06,WSW,244,1.0,22.0,60,0.00,,OVC036,0.00,VWS V14.01,2013-01-21 17:35:00,
2013-01-21 12:40:00,24.4,12.9,30.07,West,271,7.0,16.0,61,0.00,,OVC036,0.00,VWS V14.01,2013-01-21 17:40:00,
2013-01-21 12:45:00,24.2,12.7,30.07,NW,325,7.0,12.0,61,0.00,,OVC036,0.00,VWS V14.01,2013-01-21 17:45:00,
2013-01-21 12:50:00,24.4,12.9,30.07,NW,305,3.0,12.0,61,0.00,,OVC036,0.00,VWS V14.01,2013-01-21 17:50:00,
2013-01-21 12:55:00,24.5,13.4,30.06,North,353,2.0,12.0,62,0.00,,OVC036,0.00,VWS V14.01,2013-01-21 17:55:00,
2013-01-21 13:00:00,24.5,14.1,30.06,NW,311,8.0,14.0,64,0.00,,OVC036,0.00,VWS V14.01,2013-01-21 18:00:00,
2013-01-21 13:05:00,24.2,14.1,30.07,WNW,282,10.0,13.0,65,0.00,,,0.00,VWS V14.01,2013-01-21 18:05:00,
2013-01-21 13:10:00,24.1,14.7,30.07,West,280,6.0,14.0,67,0.00,,,0.00,VWS V14.01,2013-01-21 18:10:00,
2013-01-21 13:15:00,24.4,15.0,30.07,South,175,2.0,12.0,67,0.00,,,0.00,VWS V14.01,2013-01-21 18:15:00,
2013-01-21 13:20:00,24.7,14.3,30.07,WNW,289,6.0,11.0,64,0.00,,,0.00,VWS V14.01,2013-01-21 18:20:00,
2013-01-21 13:25:00,25.1,12.8,30.06,West,260,12.0,16.0,59,0.00,,,0.00,VWS V14.01,2013-01-21 18:25:00,
2013-01-21 13:30:00,25.1,11.6,30.06,NW,320,5.0,17.0,56,0.00,,,0.00,VWS V14.01,2013-01-21 18:30:00,
2013-01-21 13:35:00,24.4,12.9,30.06,WNW,288,6.0,20.0,61,0.00,,OVC050,0.00,VWS V14.01,2013-01-21 18:35:00,
2013-01-21 13:40:00,24.2,13.1,30.06,NW,320,6.0,20.0,62,0.00,,OVC050,0.00,VWS V14.01,2013-01-21 18:40:00,
2013-01-21 13:45:00,24.2,13.8,30.07,West,272,2.0,15.0,64,0.00,,OVC050,0.00,VWS V14.01,2013-01-21 18:45:00,
2013-01-21 13:50:00,24.1,13.0,30.07,NW,306,6.0,20.0,62,0.00,,OVC050,0.00,VWS V14.01,2013-01-21 18:50:00,
2013-01-21 13:55:00,24.2,13.4,30.07,NW,312,3.0,20.0,63,0.00,,OVC050,0.00,VWS V14.01,2013-01-21 18:55:00,
2013-01-21 14:00:00,24.4,13.3,30.07,WSW,257,7.0,14.0,62,0.00,,OVC049,0.00,VWS V14.01,2013-01-21 19:00:00,
2013-01-21 14:06:00,24.5,13.0,30.07,WNW,289,3.0,14.0,61,0.00,,OVC049,0.00,VWS V14.01,2013-01-21 19:06:00,
2013-01-21 14:11:00,24.5,13.0,30.07,West,274,0.0,24.0,61,0.00,,OVC049,0.00,VWS V14.01,2013-01-21 19:11:00,
2013-01-21 14:15:00,21.4,12.8,30.09,WNW,298,4.0,18.0,69,0.00,,OVC100,0.00,VWS V14.01,2013-01-21 19:15:00,
2013-01-21 14:16:00,24.2,14.1,30.07,WSW,247,6.0,24.0,65,0.00,,,0.00,VWS V14.01,2013-01-21 19:16:00,
2013-01-21 14:21:00,23.5,15.8,30.08,NNW,346,10.0,17.0,72,0.00,,,0.00,VWS V14.01,2013-01-21 19:21:00,
2013-01-21 14:26:00,22.4,16.6,30.08,NW,306,7.0,12.0,78,0.00,,,0.00,VWS V14.01,2013-01-21 19:26:00,
2013-01-21 14:30:00,21.4,11.5,30.09,WSW,253,0.0,18.0,65,0.00,,OVC100,0.00,VWS V14.01,2013-01-21 19:30:00,
2013-01-21 14:31:00,21.9,16.7,30.08,NW,313,1.0,11.0,80,0.00,,,0.00,VWS V14.01,2013-01-21 19:31:00,
2013-01-21 14:36:00,21.6,16.7,30.08,SW,229,1.0,10.0,81,0.00,,,0.00,VWS V14.01,2013-01-21 19:36:00,
2013-01-21 14:41:00,21.3,15.5,30.09,WNW,287,2.0,14.0,78,0.00,,,0.00,VWS V14.01,2013-01-21 19:41:00,
2013-01-21 14:45:00,21.9,9.8,30.09,West,267,11.0,19.0,59,0.00,,OVC100,0.00,VWS V14.01,2013-01-21 19:45:00,
2013-01-21 14:46:00,21.4,15.0,30.08,WNW,295,1.0,12.0,76,0.00,,,0.00,VWS V14.01,2013-01-21 19:46:00,
2013-01-21 14:51:00,21.3,14.9,30.09,West,278,0.0,14.0,76,0.00,,,0.00,VWS V14.01,2013-01-21 19:51:00,
2013-01-21 14:56:00,21.0,14.6,30.09,West,267,5.0,12.0,76,0.00,,,0.00,VWS V14.01,2013-01-21 19:56:00,
2013-01-21 15:00:00,19.9,12.0,30.11,WSW,257,0.0,19.0,71,0.00,,OVC100,0.00,VWS V14.01,2013-01-21 20:00:00,
2013-01-21 15:01:00,21.3,14.6,30.09,West,263,5.0,8.0,75,0.00,,,0.00,VWS V14.01,2013-01-21 20:01:00,
2013-01-21 15:06:00,21.3,13.1,30.09,WSW,258,6.0,14.0,70,0.00,,OVC046,0.00,VWS V14.01,2013-01-21 20:06:00,
2013-01-21 15:11:00,21.4,12.5,30.09,NW,311,5.0,18.0,68,0.00,,OVC046,0.00,VWS V14.01,2013-01-21 20:11:00,
2013-01-21 15:15:00,20.3,10.1,30.12,West,260,5.0,17.0,64,0.00,,OVC100,0.00,VWS V14.01,2013-01-21 20:15:00,
2013-01-21 15:16:00,21.4,12.8,30.09,NW,320,3.0,13.0,69,0.00,,OVC046,0.00,VWS V14.01,2013-01-21 20:16:00,
2013-01-21 15:21:00,21.6,12.7,30.09,West,265,16.0,16.0,68,0.00,,OVC046,0.00,VWS V14.01,2013-01-21 20:21:00,
2013-01-21 15:26:00,21.3,11.4,30.09,WNW,295,0.0,18.0,65,0.00,,OVC046,0.00,VWS V14.01,2013-01-21 20:26:00,
2013-01-21 15:30:00,19.9,11.1,30.13,WSW,254,9.0,14.0,68,0.00,,OVC100,0.00,VWS V14.01,2013-01-21 20:30:00,
2013-01-21 15:31:00,21.4,11.1,30.09,West,278,3.0,17.0,64,0.00,,BKN055,0.00,VWS V14.01,2013-01-21 20:31:00,
2013-01-21 15:36:00,21.8,10.1,30.09,WNW,295,8.0,20.0,60,0.00,,BKN055,0.00,VWS V14.01,2013-01-21 20:36:00,
2013-01-21 15:41:00,22.1,9.6,30.09,WNW,287,6.0,20.0,58,0.00,,BKN055,0.00,VWS V14.01,2013-01-21 20:41:00,
2013-01-21 15:45:00,18.9,10.1,30.14,West,268,3.0,15.0,68,0.00,,OVC100,0.00,VWS V14.01,2013-01-21 20:45:00,
2013-01-21 15:46:00,21.8,10.1,30.09,West,260,3.0,19.0,60,0.00,,BKN055,0.00,VWS V14.01,2013-01-21 20:46:00,
2013-01-21 15:51:00,21.4,10.8,30.10,West,278,11.0,28.0,63,0.00,,BKN055,0.00,VWS V14.01,2013-01-21 20:51:00,
2013-01-21 15:56:00,20.5,12.0,30.11,NW,309,0.0,28.0,69,0.00,,BKN055,0.00,VWS V14.01,2013-01-21 20:56:00,
2013-01-21 16:00:00,18.6,7.0,30.14,WNW,288,5.0,27.0,60,0.00,,OVC100,0.00,VWS V14.01,2013-01-21 21:00:00,
2013-01-21 16:01:00,19.7,11.8,30.11,SW,234,9.0,13.0,71,0.00,,BKN055,0.00,VWS V14.01,2013-01-21 21:01:00,
2013-01-21 16:06:00,20.0,11.5,30.12,SW,219,5.0,14.0,69,0.00,,,0.00,VWS V14.01,2013-01-21 21:06:00,
2013-01-21 16:11:00,20.3,10.8,30.11,WNW,288,6.0,13.0,66,0.00,,,0.00,VWS V14.01,2013-01-21 21:11:00,
2013-01-21 16:15:00,18.4,7.6,30.14,WNW,291,4.0,14.0,62,0.00,,OVC100,0.00,VWS V14.01,2013-01-21 21:15:00,
2013-01-21 16:16:00,20.3,10.1,30.12,WSW,243,0.0,17.0,64,0.00,,,0.00,VWS V14.01,2013-01-21 21:16:00,
2013-01-21 16:21:00,20.0,9.4,30.12,West,264,11.0,17.0,63,0.00,,,0.00,VWS V14.01,2013-01-21 21:21:00,
2013-01-21 16:26:00,20.0,9.8,30.12,West,263,3.0,16.0,64,0.00,,,0.00,VWS V14.01,2013-01-21 21:26:00,
2013-01-21 16:30:00,17.5,7.8,30.15,WNW,284,11.0,13.0,65,0.00,,OVC100,0.00,VWS V14.01,2013-01-21 21:30:00,
2013-01-21 16:31:00,19.7,11.2,30.13,WSW,253,5.0,12.0,69,0.00,,,0.00,VWS V14.01,2013-01-21 21:31:00,
2013-01-21 16:36:00,19.1,11.3,30.14,West,265,14.0,24.0,71,0.00,,,0.00,VWS V14.01,2013-01-21 21:36:00,
2013-01-21 16:41:00,18.8,10.0,30.14,WNW,294,0.0,24.0,68,0.00,,,0.00,VWS V14.01,2013-01-21 21:41:00,
2013-01-21 16:45:00,17.3,5.8,30.15,West,264,7.0,17.0,60,0.00,,OVC100,0.00,VWS V14.01,2013-01-21 21:45:00,
2013-01-21 16:46:00,18.9,9.8,30.14,SSW,199,2.0,13.0,67,0.00,,,0.00,VWS V14.01,2013-01-21 21:46:00,
2013-01-21 16:51:00,18.9,9.1,30.14,West,272,5.0,12.0,65,0.00,,,0.00,VWS V14.01,2013-01-21 21:51:00,
2013-01-21 16:56:00,18.8,7.9,30.14,West,272,14.0,27.0,62,0.00,,,0.00,VWS V14.01,2013-01-21 21:56:00,
2013-01-21 17:00:00,17.2,7.5,30.15,WNW,301,5.0,14.0,65,0.00,,OVC100,0.00,VWS V14.01,2013-01-21 22:00:00,
2013-01-21 17:01:00,18.6,7.0,30.14,West,267,12.0,27.0,60,0.00,,,0.00,VWS V14.01,2013-01-21 22:01:00,
2013-01-21 17:06:00,18.6,7.0,30.13,WNW,292,3.0,18.0,60,0.00,,OVC050,0.00,VWS V14.01,2013-01-21 22:06:00,
2013-01-21 17:11:00,18.4,7.2,30.14,NW,304,4.0,16.0,61,0.00,,OVC050,0.00,VWS V14.01,2013-01-21 22:11:00,
2013-01-21 17:15:00,17.0,5.9,30.16,WNW,288,3.0,11.0,61,0.00,,OVC100,0.00,VWS V14.01,2013-01-21 22:15:00,
2013-01-21 17:17:00,18.4,8.3,30.14,WNW,298,3.0,15.0,64,0.00,,OVC050,0.00,VWS V14.01,2013-01-21 22:17:00,
2013-01-21 17:22:00,18.1,8.3,30.14,WNW,302,5.0,15.0,65,0.00,,OVC050,0.00,VWS V14.01,2013-01-21 22:22:00,
2013-01-21 17:27:00,17.7,7.9,30.14,WSW,256,2.0,14.0,65,0.00,,OVC050,0.00,VWS V14.01,2013-01-21 22:27:00,
2013-01-21 17:30:00,16.5,3.9,30.17,West,272,7.0,16.0,57,0.00,,OVC100,0.00,VWS V14.01,2013-01-21 22:30:00,
2013-01-21 17:32:00,17.5,7.4,30.15,WNW,292,2.0,17.0,64,0.00,,OVC050,0.00,VWS V14.01,2013-01-21 22:32:00,
2013-01-21 17:37:00,17.3,6.5,30.15,West,267,12.0,17.0,62,0.00,,OVC050,0.00,VWS V14.01,2013-01-21 22:37:00,
2013-01-21 17:42:00,17.3,6.2,30.15,WNW,295,7.0,14.0,61,0.00,,OVC050,0.00,VWS V14.01,2013-01-21 22:42:00,
2013-01-21 17:45:00,15.7,2.4,30.18,NW,306,11.0,17.0,55,0.00,,OVC100,0.00,VWS V14.01,2013-01-21 22:45:00,
2013-01-21 17:47:00,17.3,5.8,30.15,WNW,285,1.0,17.0,60,0.00,,OVC050,0.00,VWS V14.01,2013-01-21 22:47:00,
2013-01-21 17:52:00,17.3,6.2,30.15,WNW,301,1.0,14.0,61,0.00,,OVC050,0.00,VWS V14.01,2013-01-21 22:52:00,
2013-01-21 17:57:00,17.2,7.5,30.15,NW,308,0.0,14.0,65,0.00,,OVC050,0.00,VWS V14.01,2013-01-21 22:57:00,
2013-01-21 18:00:00,15.6,2.7,30.18,WSW,237,2.0,11.0,56,0.00,,OVC100,0.00,VWS V14.01,2013-01-21 23:00:00,
2013-01-21 18:02:00,17.2,7.1,30.15,WNW,295,10.0,18.0,64,0.00,,OVC050,0.00,VWS V14.01,2013-01-21 23:02:00,
2013-01-21 18:07:00,17.2,6.8,30.16,North,352,3.0,18.0,63,0.00,,OVC050,0.00,VWS V14.01,2013-01-21 23:07:00,
2013-01-21 18:12:00,17.2,6.4,30.15,WSW,257,3.0,11.0,62,0.00,,OVC050,0.00,VWS V14.01,2013-01-21 23:12:00,
2013-01-21 18:15:00,15.6,2.3,30.19,West,267,5.0,21.0,55,0.00,,OVC100,0.00,VWS V14.01,2013-01-21 23:15:00,
2013-01-21 18:17:00,17.0,5.5,30.16,WNW,292,3.0,17.0,60,0.00,,OVC050,0.00,VWS V14.01,2013-01-21 23:17:00,
2013-01-21 18:22:00,16.9,5.1,30.16,West,270,6.0,18.0,59,0.00,,OVC050,0.00,VWS V14.01,2013-01-21 23:22:00,
2013-01-21 18:27:00,16.7,4.5,30.16,SW,224,13.0,18.0,58,0.00,,OVC050,0.00,VWS V14.01,2013-01-21 23:27:00,
2013-01-21 18:30:00,15.1,2.6,30.18,West,277,5.0,17.0,57,0.00,,OVC100,0.00,VWS V14.01,2013-01-21 23:30:00,
2013-01-21 18:32:00,16.4,3.8,30.17,West,264,7.0,20.0,57,0.00,,OVC050,0.00,VWS V14.01,2013-01-21 23:32:00,
2013-01-21 18:37:00,16.1,3.2,30.17,SW,233,4.0,20.0,56,0.00,,OVC050,0.00,VWS V14.01,2013-01-21 23:37:00,
2013-01-21 18:42:00,15.9,2.6,30.17,WNW,294,0.0,13.0,55,0.00,,OVC050,0.00,VWS V14.01,2013-01-21 23:42:00,
2013-01-21 18:45:00,14.4,2.3,30.19,WNW,296,11.0,12.0,58,0.00,,OVC100,0.00,VWS V14.01,2013-01-21 23:45:00,
2013-01-21 18:47:00,15.7,2.4,30.18,West,281,6.0,17.0,55,0.00,,OVC050,0.00,VWS V14.01,2013-01-21 23:47:00,
2013-01-21 18:52:00,15.6,2.3,30.18,WNW,288,0.0,17.0,55,0.00,,OVC050,0.00,VWS V14.01,2013-01-21 23:52:00,
2013-01-21 18:57:00,15.6,2.3,30.18,NW,305,0.0,12.0,55,0.00,,OVC050,0.00,VWS V14.01,2013-01-21 23:57:00,
2013-01-21 19:00:00,14.1,2.0,30.19,WNW,282,4.0,11.0,58,0.00,,OVC100,0.00,VWS V14.01,2013-01-22 00:00:00,
2013-01-21 19:02:00,15.6,2.7,30.18,WNW,284,0.0,12.0,56,0.00,,BKN046,0.00,VWS V14.01,2013-01-22 00:02:00,
2013-01-21 19:07:00,15.7,2.4,30.19,WNW,302,8.0,17.0,55,0.00,,BKN046,0.00,VWS V14.01,2013-01-22 00:07:00,
2013-01-21 19:12:00,15.6,2.3,30.19,WNW,298,2.0,21.0,55,0.00,,BKN046,0.00,VWS V14.01,2013-01-22 00:12:00,
2013-01-21 19:15:00,13.6,1.2,30.18,West,272,14.0,14.0,57,0.00,,OVC100,0.00,VWS V14.01,2013-01-22 00:15:00,
2013-01-21 19:17:00,15.4,2.1,30.19,West,270,5.0,18.0,55,0.00,,BKN046,0.00,VWS V14.01,2013-01-22 00:17:00,
2013-01-21 19:22:00,15.4,2.1,30.19,WNW,292,0.0,19.0,55,0.00,,BKN046,0.00,VWS V14.01,2013-01-22 00:22:00,
2013-01-21 19:27:00,15.2,2.7,30.19,West,264,1.0,17.0,57,0.00,,BKN046,0.00,VWS V14.01,2013-01-22 00:27:00,
2013-01-21 19:30:00,13.5,1.9,30.19,WNW,288,2.0,8.0,59,0.00,,OVC100,0.00,VWS V14.01,2013-01-22 00:30:00,
2013-01-21 19:32:00,14.9,2.4,30.18,West,274,8.0,13.0,57,0.00,,BKN046,0.00,VWS V14.01,2013-01-22 00:32:00,
2013-01-21 19:37:00,14.8,2.3,30.19,WNW,288,1.0,18.0,57,0.00,,BKN046,0.00,VWS V14.01,2013-01-22 00:37:00,
2013-01-21 19:42:00,14.6,2.5,30.19,WNW,291,8.0,18.0,58,0.00,,BKN046,0.00,VWS V14.01,2013-01-22 00:42:00,
2013-01-21 19:45:00,12.9,0.9,30.19,West,264,0.0,11.0,58,0.00,,OVC100,0.00,VWS V14.01,2013-01-22 00:45:00,
2013-01-21 19:47:00,14.4,2.3,30.19,WSW,246,3.0,17.0,58,0.00,,BKN046,0.00,VWS V14.01,2013-01-22 00:47:00,
2013-01-21 19:52:00,14.3,1.9,30.19,West,274,2.0,17.0,57,0.00,,BKN046,0.00,VWS V14.01,2013-01-22 00:52:00,
2013-01-21 19:57:00,14.3,2.2,30.19,West,278,0.0,16.0,58,0.00,,BKN046,0.00,VWS V14.01,2013-01-22 00:57:00,
2013-01-21 20:00:00,12.8,0.8,30.20,WSW,243,1.0,13.0,58,0.00,,OVC100,0.00,VWS V14.01,2013-01-22 01:00:00,
2013-01-21 20:02:00,14.1,2.0,30.19,NW,319,4.0,10.0,58,0.00,,FEW035,0.00,VWS V14.01,2013-01-22 01:02:00,
2013-01-21 20:07:00,14.0,2.0,30.18,West,278,3.0,17.0,58,0.00,,FEW035,0.00,VWS V14.01,2013-01-22 01:07:00,
2013-01-21 20:12:00,13.8,1.8,30.18,NW,315,3.0,17.0,58,0.00,,FEW035,0.00,VWS V14.01,2013-01-22 01:12:00,
2013-01-21 20:15:00,12.3,-0.4,30.21,WNW,299,10.0,17.0,56,0.00,,OVC100,0.00,VWS V14.01,2013-01-22 01:15:00,
2013-01-21 20:17:00,13.6,1.2,30.18,West,268,1.0,16.0,57,0.00,,FEW035,0.00,VWS V14.01,2013-01-22 01:17:00,
2013-01-21 20:23:00,13.5,1.5,30.19,West,281,3.0,14.0,58,0.00,,FEW035,0.00,VWS V14.01,2013-01-22 01:23:00,
2013-01-21 20:28:00,13.5,1.5,30.19,WNW,282,1.0,8.0,58,0.00,,FEW035,0.00,VWS V14.01,2013-01-22 01:28:00,
2013-01-21 20:30:00,12.1,-1.0,30.22,West,281,1.0,13.0,55,0.00,,OVC100,0.00,VWS V14.01,2013-01-22 01:30:00,
2013-01-21 20:33:00,13.3,1.7,30.19,West,268,7.0,12.0,59,0.00,,FEW035,0.00,VWS V14.01,2013-01-22 01:33:00,
2013-01-21 20:38:00,13.1,1.5,30.19,West,260,2.0,12.0,59,0.00,,FEW035,0.00,VWS V14.01,2013-01-22 01:38:00,
2013-01-21 20:43:00,12.9,0.9,30.19,West,280,0.0,11.0,58,0.00,,FEW035,0.00,VWS V14.01,2013-01-22 01:43:00,
2013-01-21 20:45:00,11.6,-1.8,30.22,WNW,292,6.0,18.0,54,0.00,,OVC100,0.00,VWS V14.01,2013-01-22 01:45:00,
2013-01-21 20:48:00,12.8,0.8,30.19,West,272,6.0,7.0,58,0.00,,FEW035,0.00,VWS V14.01,2013-01-22 01:48:00,
2013-01-21 20:53:00,12.8,0.8,30.20,West,268,0.0,9.0,58,0.00,,FEW035,0.00,VWS V14.01,2013-01-22 01:53:00,
2013-01-21 20:58:00,12.8,0.8,30.20,WNW,288,1.0,13.0,58,0.00,,FEW035,0.00,VWS V14.01,2013-01-22 01:58:00,
2013-01-21 21:00:00,11.2,-2.2,30.23,WSW,257,0.0,17.0,54,0.00,,OVC100,0.00,VWS V14.01,2013-01-22 02:00:00,
2013-01-21 21:03:00,12.8,1.2,30.20,West,265,7.0,14.0,59,0.00,,CLR,0.00,VWS V14.01,2013-01-22 02:03:00,
2013-01-21 21:08:00,12.6,1.0,30.20,NW,308,3.0,17.0,59,0.00,,CLR,0.00,VWS V14.01,2013-01-22 02:08:00,
2013-01-21 21:13:00,12.4,-0.3,30.21,WNW,288,1.0,17.0,56,0.00,,CLR,0.00,VWS V14.01,2013-01-22 02:13:00,
2013-01-21 21:15:00,11.1,-1.9,30.23,West,281,2.0,11.0,55,0.00,,OVC100,0.00,VWS V14.01,2013-01-22 02:15:00,
2013-01-21 21:18:00,12.3,-0.8,30.21,WSW,257,2.0,12.0,55,0.00,,CLR,0.00,VWS V14.01,2013-01-22 02:18:00,
2013-01-21 21:23:00,12.1,-1.0,30.21,WNW,288,3.0,13.0,55,0.00,,CLR,0.00,VWS V14.01,2013-01-22 02:23:00,
2013-01-21 21:28:00,12.1,-1.0,30.22,WNW,288,5.0,13.0,55,0.00,,CLR,0.00,VWS V14.01,2013-01-22 02:28:00,
2013-01-21 21:30:00,10.9,-1.7,30.23,WNW,299,1.0,16.0,56,0.00,,OVC100,0.00,VWS V14.01,2013-01-22 02:30:00,
2013-01-21 21:33:00,12.1,-1.0,30.22,West,267,10.0,21.0,55,0.00,,CLR,0.00,VWS V14.01,2013-01-22 02:33:00,
2013-01-21 21:38:00,11.9,-1.5,30.22,West,280,7.0,21.0,54,0.00,,CLR,0.00,VWS V14.01,2013-01-22 02:38:00,
2013-01-21 21:43:00,11.7,-1.7,30.22,WNW,294,0.0,13.0,54,0.00,,CLR,0.00,VWS V14.01,2013-01-22 02:43:00,
2013-01-21 21:45:00,10.7,-1.9,30.24,WSW,248,0.0,8.0,56,0.00,,OVC100,0.00,VWS V14.01,2013-01-22 02:45:00,
2013-01-21 21:48:00,11.6,-1.8,30.22,NW,305,5.0,18.0,54,0.00,,CLR,0.00,VWS V14.01,2013-01-22 02:48:00,
2013-01-21 21:53:00,11.4,-2.0,30.23,NW,306,1.0,16.0,54,0.00,,CLR,0.00,VWS V14.01,2013-01-22 02:53:00,
2013-01-21 21:58:00,11.2,-2.2,30.23,WNW,288,1.0,17.0,54,0.00,,CLR,0.00,VWS V14.01,2013-01-22 02:58:00,
2013-01-21 22:00:00,10.7,-1.1,30.24,WNW,285,6.0,21.0,58,0.00,,OVC100,0.00,VWS V14.01,2013-01-22 03:00:00,
2013-01-21 22:03:00,11.2,-2.2,30.23,WNW,287,0.0,17.0,54,0.00,,FEW036,0.00,VWS V14.01,2013-01-22 03:03:00,
2013-01-21 22:08:00,11.1,-1.9,30.23,West,267,0.0,8.0,55,0.00,,FEW036,0.00,VWS V14.01,2013-01-22 03:08:00,
2013-01-21 22:13:00,11.1,-1.9,30.23,West,272,5.0,11.0,55,0.00,,FEW036,0.00,VWS V14.01,2013-01-22 03:13:00,
2013-01-21 22:15:00,10.4,-2.2,30.24,West,263,10.0,12.0,56,0.00,,OVC100,0.00,VWS V14.01,2013-01-22 03:15:00,
2013-01-21 22:18:00,11.1,-1.5,30.23,West,260,0.0,10.0,56,0.00,,FEW036,0.00,VWS V14.01,2013-01-22 03:18:00,
2013-01-21 22:23:00,10.9,-1.7,30.23,West,263,6.0,19.0,56,0.00,,FEW036,0.00,VWS V14.01,2013-01-22 03:23:00,
2013-01-21 22:28:00,10.9,-1.7,30.23,WNW,298,0.0,16.0,56,0.00,,FEW036,0.00,VWS V14.01,2013-01-22 03:28:00,
2013-01-21 22:30:00,10.2,-2.4,30.24,West,271,0.0,12.0,56,0.00,,OVC100,0.00,VWS V14.01,2013-01-22 03:30:00,
2013-01-21 22:33:00,10.9,-1.7,30.23,WNW,287,7.0,17.0,56,0.00,,FEW036,0.00,VWS V14.01,2013-01-22 03:33:00,
2013-01-21 22:39:00,10.7,-1.9,30.24,NW,306,0.0,14.0,56,0.00,,FEW036,0.00,VWS V14.01,2013-01-22 03:39:00,
2013-01-21 22:44:00,10.7,-1.9,30.24,SSW,205,3.0,8.0,56,0.00,,FEW036,0.00,VWS V14.01,2013-01-22 03:44:00,
2013-01-21 22:45:00,10.4,-1.4,30.25,WNW,292,0.0,12.0,58,0.00,,OVC100,0.00,VWS V14.01,2013-01-22 03:45:00,
2013-01-21 22:49:00,10.7,-1.5,30.24,WSW,253,6.0,12.0,57,0.00,,FEW036,0.00,VWS V14.01,2013-01-22 03:49:00,
2013-01-21 22:54:00,10.7,-1.5,30.24,WNW,301,1.0,12.0,57,0.00,,FEW036,0.00,VWS V14.01,2013-01-22 03:54:00,
2013-01-21 22:59:00,10.7,-1.2,30.24,NW,309,17.0,17.0,58,0.00,,FEW036,0.00,VWS V14.01,2013-01-22 03:59:00,
2013-01-21 23:00:00,10.4,-1.4,30.25,WSW,258,3.0,12.0,58,0.00,,OVC100,0.00,VWS V14.01,2013-01-22 04:00:00,
2013-01-21 23:04:00,10.7,-1.9,30.24,WSW,240,2.0,21.0,56,0.00,,SCT035,0.00,VWS V14.01,2013-01-22 04:04:00,
2013-01-21 23:09:00,10.5,-2.1,30.24,SW,217,2.0,16.0,56,0.00,,SCT035,0.00,VWS V14.01,2013-01-22 04:09:00,
2013-01-21 23:14:00,10.4,-2.2,30.24,NW,325,11.0,16.0,56,0.00,,SCT035,0.00,VWS V14.01,2013-01-22 04:14:00,
2013-01-21 23:15:00,10.0,-1.8,30.25,WSW,243,5.0,13.0,58,0.00,,OVC100,0.00,VWS V14.01,2013-01-22 04:15:00,
2013-01-21 23:19:00,10.4,-2.2,30.24,WNW,294,0.0,12.0,56,0.00,,SCT035,0.00,VWS V14.01,2013-01-22 04:19:00,
2013-01-21 23:24:00,10.4,-2.2,30.24,WSW,257,6.0,14.0,56,0.00,,SCT035,0.00,VWS V14.01,2013-01-22 04:24:00,
2013-01-21 23:29:00,10.2,-2.4,30.24,West,280,2.0,12.0,56,0.00,,SCT035,0.00,VWS V14.01,2013-01-22 04:29:00,
2013-01-21 23:30:00,9.9,-1.5,30.25,West,265,6.0,11.0,59,0.00,,OVC100,0.00,VWS V14.01,2013-01-22 04:30:00,
2013-01-21 23:34:00,10.2,-2.4,30.24,West,272,2.0,11.0,56,0.00,,SCT035,0.00,VWS V14.01,2013-01-22 04:34:00,
2013-01-21 23:39:00,10.4,-1.8,30.24,WSW,256,5.0,11.0,57,0.00,,SCT035,0.00,VWS V14.01,2013-01-22 04:39:00,
2013-01-21 23:44:00,10.4,-1.4,30.25,WNW,289,2.0,12.0,58,0.00,,SCT035,0.00,VWS V14.01,2013-01-22 04:44:00,
2013-01-21 23:45:00,9.3,-1.4,30.25,WNW,285,0.0,10.0,61,0.00,,OVC100,0.00,VWS V14.01,2013-01-22 04:45:00,
2013-01-21 23:49:00,10.2,-1.6,30.25,West,268,0.0,7.0,58,0.00,,SCT035,0.00,VWS V14.01,2013-01-22 04:49:00,
2013-01-21 23:54:00,10.4,-1.4,30.25,WNW,282,2.0,8.0,58,0.00,,SCT035,0.00,VWS V14.01,2013-01-22 04:54:00,
2013-01-21 23:59:00,10.4,-1.4,30.25,WNW,301,0.0,12.0,58,0.00,,SCT035,0.00,VWS V14.01,2013-01-22 04:59:00,